createdAt,value
2023-12-02T00:00:26.145Z,99358.94
2023-12-02T00:02:53.294Z,99358.81
2023-12-02T00:05:20.159Z,99358.16
2023-12-02T00:07:46.956Z,99349.88
2023-12-02T00:10:13.765Z,99358.63
2023-12-02T00:12:40.601Z,99360.44
2023-12-02T00:15:08.404Z,99352.09
2023-12-02T00:17:35.427Z,99351.13
2023-12-02T00:20:02.635Z,99353.34
2023-12-02T00:22:30.949Z,99354.16
2023-12-02T00:24:57.950Z,99351.91
2023-12-02T00:27:24.680Z,99361.13
2023-12-02T00:29:51.568Z,99345.03
2023-12-02T00:32:28.240Z,99351.38
2023-12-02T00:34:57.713Z,99363.63
2023-12-02T00:37:24.643Z,99361.53
2023-12-02T00:39:51.428Z,99359.47
2023-12-02T00:42:18.224Z,99357.09
2023-12-02T00:44:45.077Z,99360.56
2023-12-02T00:47:11.836Z,99359.38
2023-12-02T00:49:38.598Z,99361.59
2023-12-02T00:52:05.486Z,99362.81
2023-12-02T00:54:35.259Z,99369.97
2023-12-02T00:57:02.244Z,99363.34
2023-12-02T00:59:29.069Z,99368.75
2023-12-02T01:01:55.849Z,99367.16
2023-12-02T01:04:22.759Z,99375.13
2023-12-02T01:06:49.501Z,99376.34
2023-12-02T01:09:16.566Z,99370.22
2023-12-02T01:11:43.480Z,99383.25
2023-12-02T01:14:10.389Z,99373.47
2023-12-02T01:16:37.090Z,99382.66
2023-12-02T01:19:03.818Z,99379.97
2023-12-02T01:21:31.137Z,99386.69
2023-12-02T01:23:58.855Z,99390.00
2023-12-02T01:26:25.736Z,99389.16
2023-12-02T01:28:52.536Z,99388.38
2023-12-02T01:31:19.440Z,99381.09
2023-12-02T01:33:46.227Z,99404.09
2023-12-02T01:36:15.940Z,99399.44
2023-12-02T01:38:43.315Z,99405.53
2023-12-02T01:41:10.079Z,99408.22
2023-12-02T01:43:38.728Z,99408.84
2023-12-02T01:46:05.890Z,99415.53
2023-12-02T01:48:37.180Z,99422.06
2023-12-02T01:51:05.432Z,99420.44
2023-12-02T01:53:32.496Z,99416.56
2023-12-02T01:55:59.825Z,99437.97
2023-12-02T01:58:27.387Z,99424.09
2023-12-02T02:00:54.233Z,99430.63
2023-12-02T02:03:21.134Z,99428.19
2023-12-02T02:05:48.356Z,99430.63
2023-12-02T02:08:15.439Z,99426.56
2023-12-02T02:10:42.144Z,99431.44
2023-12-02T02:13:08.886Z,99430.25
2023-12-02T02:15:35.943Z,99433.50
2023-12-02T02:18:03.028Z,99435.09
2023-12-02T02:20:53.978Z,99438.97
2023-12-02T02:23:22.817Z,99442.84
2023-12-02T02:25:52.659Z,99431.47
2023-12-02T02:28:24.595Z,99442.22
2023-12-02T02:30:51.882Z,99445.50
2023-12-02T02:33:19.524Z,99444.09
2023-12-02T02:35:46.499Z,99447.53
2023-12-02T02:38:13.340Z,99451.19
2023-12-02T02:40:40.443Z,99459.94
2023-12-02T02:43:07.301Z,99453.44
2023-12-02T02:45:34.213Z,99451.19
2023-12-02T02:48:01.139Z,99448.53
2023-12-02T02:50:28.876Z,99453.22
2023-12-02T02:52:55.623Z,99454.88
2023-12-02T02:55:22.300Z,99456.69
2023-12-02T02:57:49.023Z,99456.91
2023-12-02T03:00:16.235Z,99457.50
2023-12-02T03:02:43.289Z,99459.56
2023-12-02T03:05:10.065Z,99452.44
2023-12-02T03:07:37.045Z,99460.97
2023-12-02T03:10:04.108Z,99450.78
2023-12-02T03:12:32.138Z,99454.03
2023-12-02T03:14:58.951Z,99458.53
2023-12-02T03:17:25.722Z,99457.09
2023-12-02T03:19:52.984Z,99451.81
2023-12-02T03:22:19.992Z,99461.94
2023-12-02T03:24:47.445Z,99462.78
2023-12-02T03:27:14.260Z,99459.50
2023-12-02T03:29:40.977Z,99458.31
2023-12-02T03:32:07.702Z,99457.69
2023-12-02T03:34:34.828Z,99455.06
2023-12-02T03:37:01.847Z,99454.66
2023-12-02T03:39:28.647Z,99456.88
2023-12-02T03:41:55.470Z,99464.38
2023-12-02T03:44:22.271Z,99462.16
2023-12-02T03:46:49.044Z,99466.03
2023-12-02T03:49:15.930Z,99458.47
2023-12-02T03:51:42.762Z,99468.88
2023-12-02T03:54:09.613Z,99468.88
2023-12-02T03:56:38.551Z,99469.28
2023-12-02T03:59:05.314Z,99467.88
2023-12-02T04:01:32.608Z,99473.97
2023-12-02T04:03:59.351Z,99477.44
2023-12-02T04:06:26.154Z,99477.44
2023-12-02T04:08:52.899Z,99478.66
2023-12-02T04:11:19.634Z,99484.38
2023-12-02T04:13:46.385Z,99474.19
2023-12-02T04:16:13.403Z,99480.47
2023-12-02T04:18:40.340Z,99496.75
2023-12-02T04:21:09.549Z,99492.50
2023-12-02T04:23:38.208Z,99497.38
2023-12-02T04:26:07.763Z,99498.59
2023-12-02T04:28:35.013Z,99498.34
2023-12-02T04:31:01.782Z,99502.25
2023-12-02T04:33:28.552Z,99509.78
2023-12-02T04:35:55.446Z,99517.31
2023-12-02T04:38:22.602Z,99517.69
2023-12-02T04:40:49.422Z,99527.09
2023-12-02T04:43:16.170Z,99531.59
2023-12-02T04:45:42.999Z,99544.59
2023-12-02T04:48:09.844Z,99551.06
2023-12-02T04:50:36.570Z,99552.97
2023-12-02T04:53:03.264Z,99545.84
2023-12-02T04:55:30.016Z,99548.28
2023-12-02T04:57:56.742Z,99565.38
2023-12-02T05:00:23.503Z,99552.13
2023-12-02T05:02:50.313Z,99564.94
2023-12-02T05:05:18.062Z,99572.91
2023-12-02T05:07:45.628Z,99568.59
2023-12-02T05:10:12.563Z,99574.69
2023-12-02T05:12:39.488Z,99579.78
2023-12-02T05:15:06.766Z,99587.72
2023-12-02T05:17:33.919Z,99583.03
2023-12-02T05:20:00.929Z,99590.38
2023-12-02T05:22:27.759Z,99599.53
2023-12-02T05:24:54.524Z,99610.56
2023-12-02T05:27:21.307Z,99610.72
2023-12-02T05:29:48.099Z,99610.97
2023-12-02T05:32:14.991Z,99619.47
2023-12-02T05:34:41.706Z,99626.00
2023-12-02T05:37:08.447Z,99624.00
2023-12-02T05:39:36.403Z,99627.88
2023-12-02T05:42:03.430Z,99625.78
2023-12-02T05:44:30.240Z,99619.97
2023-12-02T05:46:57.062Z,99627.25
2023-12-02T05:49:23.865Z,99623.78
2023-12-02T05:51:50.717Z,99633.91
2023-12-02T05:54:17.495Z,99639.84
2023-12-02T05:56:44.226Z,99644.34
2023-12-02T05:59:10.946Z,99648.44
2023-12-02T06:01:37.763Z,99650.47
2023-12-02T06:04:04.835Z,99654.19
2023-12-02T06:06:32.273Z,99645.59
2023-12-02T06:08:59.142Z,99646.00
2023-12-02T06:11:25.900Z,99661.25
2023-12-02T06:13:52.661Z,99666.97
2023-12-02T06:16:19.418Z,99664.50
2023-12-02T06:18:46.319Z,99666.97
2023-12-02T06:21:13.669Z,99667.97
2023-12-02T06:23:40.432Z,99673.63
2023-12-02T06:26:07.747Z,99668.78
2023-12-02T06:28:34.491Z,99678.63
2023-12-02T06:31:01.191Z,99683.44
2023-12-02T06:33:28.086Z,99685.47
2023-12-02T06:35:54.860Z,99689.75
2023-12-02T06:38:23.124Z,99689.13
2023-12-02T06:40:50.127Z,99691.81
2023-12-02T06:43:17.440Z,99693.03
2023-12-02T06:45:44.256Z,99701.56
2023-12-02T06:48:11.195Z,99706.78
2023-12-02T06:50:38.005Z,99714.81
2023-12-02T06:53:04.860Z,99716.41
2023-12-02T06:55:34.346Z,99712.53
2023-12-02T06:58:01.507Z,99717.28
2023-12-02T07:00:28.298Z,99711.94
2023-12-02T07:02:55.177Z,99725.97
2023-12-02T07:05:21.971Z,99722.56
2023-12-02T07:07:48.689Z,99727.66
2023-12-02T07:10:15.680Z,99736.78
2023-12-02T07:12:42.548Z,99735.41
2023-12-02T07:15:09.880Z,99742.06
2023-12-02T07:17:36.984Z,99744.50
2023-12-02T07:20:04.583Z,99746.69
2023-12-02T07:22:31.654Z,99757.47
2023-12-02T07:24:58.943Z,99761.13
2023-12-02T07:27:28.925Z,99760.59
2023-12-02T07:32:26.392Z,99762.53
2023-12-02T07:34:53.147Z,99763.00
2023-12-02T07:37:19.901Z,99761.59
2023-12-02T07:39:46.789Z,99767.44
2023-12-02T07:42:13.616Z,99765.78
2023-12-02T07:44:40.347Z,99770.69
2023-12-02T07:47:07.301Z,99779.69
2023-12-02T07:49:34.042Z,99782.72
2023-12-02T07:52:00.850Z,99780.72
2023-12-02T07:54:27.744Z,99801.50
2023-12-02T07:56:54.529Z,99795.00
2023-12-02T07:59:21.262Z,99802.91
2023-12-02T08:01:48.244Z,99805.72
2023-12-02T08:04:15.056Z,99812.31
2023-12-02T08:06:41.735Z,99801.53
2023-12-02T08:09:08.402Z,99808.34
2023-12-02T08:11:35.101Z,99813.66
2023-12-02T08:14:01.910Z,99815.28
2023-12-02T08:16:29.599Z,99824.69
2023-12-02T08:18:56.483Z,99827.56
2023-12-02T08:21:23.444Z,99829.06
2023-12-02T08:23:50.694Z,99831.63
2023-12-02T08:26:17.424Z,99829.38
2023-12-02T08:28:47.388Z,99829.25
2023-12-02T08:31:14.458Z,99832.44
2023-12-02T08:33:41.499Z,99843.31
2023-12-02T08:36:09.067Z,99835.31
2023-12-02T08:38:37.371Z,99846.50
2023-12-02T08:41:04.718Z,99841.47
2023-12-02T08:43:31.942Z,99843.47
2023-12-02T08:45:58.671Z,99849.53
2023-12-02T08:48:25.829Z,99858.38
2023-12-02T08:50:52.847Z,99857.97
2023-12-02T08:53:19.667Z,99865.66
2023-12-02T08:55:46.497Z,99872.03
2023-12-02T08:58:13.258Z,99879.56
2023-12-02T09:00:40.023Z,99884.19
2023-12-02T09:03:06.789Z,99892.19
2023-12-02T09:05:33.544Z,99894.88
2023-12-02T09:08:02.417Z,99903.41
2023-12-02T09:10:29.385Z,99896.59
2023-12-02T09:12:56.209Z,99901.66
2023-12-02T09:15:23.035Z,99905.84
2023-12-02T09:18:12.919Z,99913.78
2023-12-02T09:20:52.041Z,99922.94
2023-12-02T09:23:19.613Z,99923.38
2023-12-02T09:25:47.297Z,99927.31
2023-12-02T09:28:17.275Z,99939.94
2023-12-02T09:31:06.911Z,99938.47
2023-12-02T09:33:37.175Z,99947.06
2023-12-02T09:36:04.799Z,99951.72
2023-12-02T09:38:33.384Z,99946.47
2023-12-02T09:41:25.191Z,99963.38
2023-12-02T09:44:25.060Z,99953.09
2023-12-02T09:47:18.892Z,99951.00
2023-12-02T09:50:09.149Z,99965.44
2023-12-02T09:53:07.274Z,99961.03
2023-12-02T09:55:39.681Z,99971.28
2023-12-02T09:58:28.835Z,99969.78
2023-12-02T10:01:12.995Z,99970.00
2023-12-02T10:03:56.283Z,99975.47
2023-12-02T10:06:50.406Z,99981.13
2023-12-02T10:09:36.830Z,99981.19
2023-12-02T10:12:38.549Z,99985.06
2023-12-02T10:15:06.864Z,99985.75
2023-12-02T10:17:41.331Z,99979.16
2023-12-02T10:20:13.746Z,99987.50
2023-12-02T10:22:46.555Z,99991.59
2023-12-02T10:25:29.972Z,99989.66
2023-12-02T10:28:06.507Z,99987.91
2023-12-02T10:30:35.652Z,99995.56
2023-12-02T10:33:26.282Z,99985.66
2023-12-02T10:35:57.091Z,99992.19
2023-12-02T10:38:33.443Z,99984.25
2023-12-02T10:41:14.010Z,99983.69
2023-12-02T10:43:43.719Z,99982.69
2023-12-02T10:46:11.989Z,99987.00
2023-12-02T10:48:42.761Z,99993.31
2023-12-02T10:51:10.691Z,99995.44
2023-12-02T10:53:38.997Z,99993.13
2023-12-02T10:56:14.615Z,99997.25
2023-12-02T10:58:46.204Z,99995.59
2023-12-02T11:01:19.575Z,99998.50
2023-12-02T11:03:56.274Z,99995.81
2023-12-02T11:06:32.426Z,100005.22
2023-12-02T11:09:25.937Z,100003.78
2023-12-02T11:12:10.422Z,100007.50
2023-12-02T11:14:41.075Z,100012.63
2023-12-02T11:17:24.310Z,100010.09
2023-12-02T11:20:21.308Z,100016.38
2023-12-02T11:23:25.972Z,100011.22
2023-12-02T11:26:12.751Z,100008.31
2023-12-02T11:29:19.140Z,100022.81
2023-12-02T11:32:12.582Z,100021.38
2023-12-02T11:35:08.906Z,100031.53
2023-12-02T11:37:50.671Z,100032.56
2023-12-02T11:40:46.885Z,100039.03
2023-12-02T11:43:35.328Z,100038.16
2023-12-02T11:46:15.715Z,100045.44
2023-12-02T11:48:46.885Z,100045.38
2023-12-02T11:51:24.129Z,100041.56
2023-12-02T11:54:08.624Z,100054.44
2023-12-02T11:56:35.767Z,100051.94
2023-12-02T11:59:17.469Z,100063.88
2023-12-02T12:02:16.814Z,100057.06
2023-12-02T12:05:11.416Z,100075.78
2023-12-02T12:08:16.039Z,100080.41
2023-12-02T12:10:43.999Z,100092.03
2023-12-02T12:13:12.870Z,100094.06
2023-12-02T12:15:40.200Z,100099.06
2023-12-02T12:18:07.219Z,100096.88
2023-12-02T12:20:34.095Z,100107.78
2023-12-02T12:23:01.981Z,100117.84
2023-12-02T12:25:34.298Z,100113.94
2023-12-02T12:28:06.150Z,100117.13
2023-12-02T12:30:44.140Z,100120.22
2023-12-02T12:33:30.288Z,100124.66
2023-12-02T12:35:57.201Z,100127.19
2023-12-02T12:38:23.960Z,100128.81
2023-12-02T12:40:50.823Z,100135.41
2023-12-02T12:43:18.695Z,100140.78
2023-12-02T12:45:50.679Z,100141.31
2023-12-02T12:48:27.202Z,100144.50
2023-12-02T12:51:00.323Z,100158.81
2023-12-02T12:53:31.388Z,100160.09
2023-12-02T12:56:08.870Z,100165.31
2023-12-02T12:58:54.983Z,100166.25
2023-12-02T13:01:27.881Z,100173.88
2023-12-02T13:04:05.381Z,100181.09
2023-12-02T13:06:44.879Z,100174.25
2023-12-02T13:09:13.574Z,100179.00
2023-12-02T13:12:01.301Z,100192.41
2023-12-02T13:14:34.866Z,100196.69
2023-12-02T13:17:01.996Z,100202.34
2023-12-02T13:19:30.951Z,100208.72
2023-12-02T13:22:03.888Z,100214.56
2023-12-02T13:24:37.330Z,100222.13
2023-12-02T13:27:06.246Z,100229.53
2023-12-02T13:29:35.657Z,100231.09
2023-12-02T13:32:02.696Z,100235.09
2023-12-02T13:34:50.497Z,100243.50
2023-12-02T13:37:27.790Z,100244.28
2023-12-02T13:40:00.030Z,100249.22
2023-12-02T13:42:37.347Z,100255.72
2023-12-02T13:45:08.538Z,100259.94
2023-12-02T13:47:57.171Z,100259.78
2023-12-02T13:50:26.718Z,100264.38
2023-12-02T13:53:03.062Z,100266.88
2023-12-02T13:55:43.333Z,100274.41
2023-12-02T13:58:23.966Z,100278.91
2023-12-02T14:01:17.898Z,100278.19
2023-12-02T14:04:02.101Z,100283.88
2023-12-02T14:06:59.875Z,100290.06
2023-12-02T14:09:28.648Z,100288.38
2023-12-02T14:12:24.598Z,100305.38
2023-12-02T14:15:10.622Z,100301.38
2023-12-02T14:18:15.527Z,100317.47
2023-12-02T14:21:10.131Z,100319.56
2023-12-02T14:24:08.859Z,100324.09
2023-12-02T14:26:57.516Z,100329.09
2023-12-02T14:29:39.042Z,100334.66
2023-12-02T14:32:45.309Z,100341.34
2023-12-02T14:35:48.736Z,100344.41
2023-12-02T14:38:37.408Z,100347.59
2023-12-02T14:41:30.718Z,100354.19
2023-12-02T14:44:19.944Z,100354.72
2023-12-02T14:46:54.607Z,100359.03
2023-12-02T14:49:24.994Z,100372.13
2023-12-02T14:51:55.938Z,100370.19
2023-12-02T14:54:33.641Z,100369.00
2023-12-02T14:57:30.747Z,100377.53
2023-12-02T15:00:08.888Z,100385.38
2023-12-02T15:02:41.122Z,100388.28
2023-12-02T15:05:09.723Z,100390.75
2023-12-02T15:07:50.875Z,100387.81
2023-12-02T15:10:28.730Z,100395.22
2023-12-02T15:13:01.683Z,100393.28
2023-12-02T15:15:35.278Z,100411.91
2023-12-02T15:18:04.524Z,100410.50
2023-12-02T15:20:35.510Z,100418.63
2023-12-02T15:23:17.889Z,100418.72
2023-12-02T15:25:48.692Z,100431.78
2023-12-02T15:28:30.974Z,100435.28
2023-12-02T15:31:13.034Z,100427.06
2023-12-02T15:33:41.891Z,100443.19
2023-12-02T15:36:12.035Z,100436.84
2023-12-02T15:38:39.106Z,100433.28
2023-12-02T15:41:07.214Z,100442.66
2023-12-02T15:43:34.352Z,100442.94
2023-12-02T15:46:01.271Z,100444.41
2023-12-02T15:48:28.466Z,100451.28
2023-12-02T15:50:55.377Z,100452.66
2023-12-02T15:53:23.818Z,100463.03
2023-12-02T15:55:52.103Z,100476.22
2023-12-02T15:58:19.361Z,100481.38
2023-12-02T16:00:46.400Z,100474.28
2023-12-02T16:03:13.421Z,100487.94
2023-12-02T16:05:40.450Z,100485.44
2023-12-02T16:08:08.838Z,100487.16
2023-12-02T16:10:35.863Z,100486.53
2023-12-02T16:13:03.601Z,100491.47
2023-12-02T16:15:33.755Z,100491.31
2023-12-02T16:18:01.449Z,100505.28
2023-12-02T16:20:28.625Z,100509.63
2023-12-02T16:22:55.659Z,100505.53
2023-12-02T16:25:22.639Z,100509.84
2023-12-02T16:27:50.144Z,100514.00
2023-12-02T16:30:18.706Z,100525.88
2023-12-02T16:32:46.609Z,100529.41
2023-12-02T16:35:13.949Z,100529.06
2023-12-02T16:37:41.219Z,100526.47
2023-12-02T16:40:09.549Z,100539.16
2023-12-02T16:42:37.043Z,100547.75
2023-12-02T16:45:16.138Z,100553.56
2023-12-02T16:47:49.838Z,100555.88
2023-12-02T16:50:38.028Z,100555.16
2023-12-02T16:53:04.813Z,100565.81
2023-12-02T16:55:35.993Z,100562.34
2023-12-02T16:58:05.813Z,100566.75
2023-12-02T17:00:37.928Z,100572.28
2023-12-02T17:03:06.194Z,100570.25
2023-12-02T17:05:33.180Z,100579.78
2023-12-02T17:08:05.874Z,100581.09
2023-12-02T17:10:45.244Z,100583.84
2023-12-02T17:13:25.672Z,100593.63
2023-12-02T17:15:53.750Z,100598.34
2023-12-02T17:18:39.320Z,100599.16
2023-12-02T17:21:07.218Z,100602.78
2023-12-02T17:23:37.576Z,100605.66
2023-12-02T17:26:04.793Z,100610.31
2023-12-02T17:28:35.544Z,100613.28
2023-12-02T17:31:02.568Z,100611.44
2023-12-02T17:33:29.468Z,100612.84
2023-12-02T17:35:56.423Z,100620.72
2023-12-02T17:38:23.345Z,100616.56
2023-12-02T17:40:50.260Z,100626.50
2023-12-02T17:43:17.178Z,100621.78
2023-12-02T17:45:44.026Z,100620.44
2023-12-02T17:48:11.001Z,100629.31
2023-12-02T17:50:37.970Z,100628.50
2023-12-02T17:53:05.229Z,100632.47
2023-12-02T17:55:32.082Z,100637.84
2023-12-02T17:57:58.915Z,100637.38
2023-12-02T18:00:25.917Z,100632.91
2023-12-02T18:02:52.975Z,100635.25
2023-12-02T18:05:19.987Z,100639.09
2023-12-02T18:07:46.898Z,100642.63
2023-12-02T18:10:13.845Z,100634.97
2023-12-02T18:12:40.844Z,100639.69
2023-12-02T18:15:08.118Z,100645.81
2023-12-02T18:17:35.163Z,100644.81
2023-12-02T18:20:06.658Z,100655.91
2023-12-02T18:22:36.926Z,100668.59
2023-12-02T18:25:04.071Z,100663.66
2023-12-02T18:27:31.078Z,100662.16
2023-12-02T18:29:58.054Z,100658.06
2023-12-02T18:32:25.158Z,100663.38
2023-12-02T18:34:52.475Z,100665.34
2023-12-02T18:37:19.372Z,100676.75
2023-12-02T18:39:46.557Z,100669.16
2023-12-02T18:42:13.530Z,100679.38
2023-12-02T18:44:41.648Z,100683.94
2023-12-02T18:47:08.665Z,100689.31
2023-12-02T18:49:35.604Z,100697.69
2023-12-02T18:52:02.436Z,100699.09
2023-12-02T18:54:29.316Z,100701.91
2023-12-02T18:56:57.164Z,100703.44
2023-12-02T18:59:23.985Z,100700.56
2023-12-02T19:01:50.909Z,100712.34
2023-12-02T19:04:17.885Z,100713.75
2023-12-02T19:06:44.851Z,100715.84
2023-12-02T19:09:11.951Z,100722.19
2023-12-02T19:11:39.300Z,100729.41
2023-12-02T19:14:06.384Z,100729.22
2023-12-02T19:16:33.303Z,100737.44
2023-12-02T19:19:00.746Z,100740.09
2023-12-02T19:21:28.537Z,100748.91
2023-12-02T19:23:55.434Z,100742.50
2023-12-02T19:26:26.140Z,100745.44
2023-12-02T19:28:53.044Z,100743.19
2023-12-02T19:31:20.017Z,100753.25
2023-12-02T19:33:46.897Z,100747.50
2023-12-02T19:36:14.102Z,100759.97
2023-12-02T19:38:41.275Z,100764.78
2023-12-02T19:41:08.403Z,100762.03
2023-12-02T19:43:35.551Z,100770.34
2023-12-02T19:46:02.513Z,100771.97
2023-12-02T19:48:29.500Z,100777.94
2023-12-02T19:50:56.728Z,100780.09
2023-12-02T19:53:23.627Z,100783.38
2023-12-02T19:55:51.076Z,100788.47
2023-12-02T19:58:17.912Z,100791.97
2023-12-02T20:00:44.926Z,100791.22
2023-12-02T20:03:12.013Z,100787.63
2023-12-02T20:05:39.018Z,100791.97
2023-12-02T20:08:06.416Z,100807.19
2023-12-02T20:10:33.525Z,100813.25
2023-12-02T20:13:00.972Z,100812.59
2023-12-02T20:15:27.903Z,100810.13
2023-12-02T20:17:54.829Z,100821.22
2023-12-02T20:20:22.470Z,100815.78
2023-12-02T20:22:50.428Z,100831.81
2023-12-02T20:25:21.059Z,100819.25
2023-12-02T20:27:48.077Z,100830.16
2023-12-02T20:30:15.856Z,100836.25
2023-12-02T20:32:42.850Z,100838.41
2023-12-02T20:35:09.958Z,100844.34
2023-12-02T20:37:37.134Z,100836.22
2023-12-02T20:40:04.756Z,100838.91
2023-12-02T20:42:31.937Z,100842.03
2023-12-02T20:44:59.104Z,100835.44
2023-12-02T20:47:26.097Z,100839.78
2023-12-02T20:49:53.015Z,100845.69
2023-12-02T20:52:20.125Z,100848.50
2023-12-02T20:54:46.943Z,100847.19
2023-12-02T20:57:13.847Z,100845.88
2023-12-02T20:59:40.810Z,100852.81
2023-12-02T21:02:07.725Z,100845.22
2023-12-02T21:04:34.652Z,100852.47
2023-12-02T21:07:01.755Z,100846.22
2023-12-02T21:09:28.534Z,100856.63
2023-12-02T21:11:55.498Z,100855.66
2023-12-02T21:14:22.578Z,100864.53
2023-12-02T21:16:50.149Z,100871.84
2023-12-02T21:19:18.349Z,100869.19
2023-12-02T21:21:45.481Z,100867.03
2023-12-02T21:24:13.639Z,100875.13
2023-12-02T21:26:41.235Z,100880.59
2023-12-02T21:29:09.490Z,100880.59
2023-12-02T21:31:39.058Z,100890.81
2023-12-02T21:34:09.318Z,100887.19
2023-12-02T21:36:36.334Z,100889.25
2023-12-02T21:39:03.371Z,100888.28
2023-12-02T21:41:32.269Z,100885.66
2023-12-02T21:43:59.291Z,100889.94
2023-12-02T21:46:31.187Z,100896.41
2023-12-02T21:49:00.624Z,100894.72
2023-12-02T21:51:33.355Z,100892.56
2023-12-02T21:54:05.412Z,100899.84
2023-12-02T21:56:45.664Z,100893.75
2023-12-02T21:59:22.102Z,100891.59
2023-12-02T22:01:56.543Z,100893.44
2023-12-02T22:04:40.113Z,100908.50
2023-12-02T22:07:13.539Z,100909.09
2023-12-02T22:09:41.391Z,100911.41
2023-12-02T22:12:37.877Z,100913.22
2023-12-02T22:15:22.245Z,100914.66
2023-12-02T22:17:49.662Z,100917.28
2023-12-02T22:20:21.858Z,100918.00
2023-12-02T22:23:06.126Z,100925.38
2023-12-02T22:25:32.855Z,100936.81
2023-12-02T22:28:05.103Z,100934.22
2023-12-02T22:30:45.997Z,100941.88
2023-12-02T22:33:15.769Z,100944.09
2023-12-02T22:35:53.969Z,100944.09
2023-12-02T22:38:38.917Z,100952.34
2023-12-02T22:41:08.313Z,100951.69
2023-12-02T22:43:41.480Z,100955.28
2023-12-02T22:46:08.554Z,100958.34
2023-12-02T22:48:46.020Z,100953.06
2023-12-02T22:51:36.360Z,100963.94
2023-12-02T22:54:11.612Z,100964.41
2023-12-02T22:56:38.804Z,100967.56
2023-12-02T22:59:08.722Z,100971.41
2023-12-02T23:01:38.184Z,100971.69
2023-12-02T23:04:34.530Z,100974.38
2023-12-02T23:07:21.312Z,100978.69
2023-12-02T23:09:51.408Z,100975.50
2023-12-02T23:12:36.768Z,100973.56
2023-12-02T23:15:25.912Z,100977.84
2023-12-02T23:17:53.722Z,100977.53
2023-12-02T23:20:29.476Z,100979.50
2023-12-02T23:22:57.021Z,100975.25
2023-12-02T23:25:26.031Z,100972.59
2023-12-02T23:27:54.203Z,100977.06
2023-12-02T23:30:21.891Z,100971.03
2023-12-02T23:32:49.294Z,100980.81
2023-12-02T23:35:22.130Z,100983.69
2023-12-02T23:37:50.758Z,100978.94
2023-12-02T23:40:27.633Z,100983.13
2023-12-02T23:42:58.320Z,100979.38
2023-12-02T23:45:25.576Z,100976.91
2023-12-02T23:47:53.279Z,100985.34
2023-12-02T23:50:21.001Z,100987.22
2023-12-02T23:52:48.347Z,100990.88
2023-12-02T23:55:15.684Z,100993.13
2023-12-02T23:57:43.607Z,100993.03
